Graf, Nebraska
Current Conditions -  °F | °C
As of 8:35 AM on Monday 20 Oct 2014 (Local Time) from KAFK Reporting Station
Clear Clear  
Wind Chill: 52°   Ceiling: Unl
Heat Index: 52°   Visibility: 10mi
Dew Point: 44°   Wind: 7mph
Humidity: 75%   Direction: 20°NNE
Pressure: 30.07"   Gusts: NA
Location:  40.3627°N, 96.254°W
Report Text: KAFK 201335Z AUTO 02006KT 10SM CLR 11/07 A3007 RMK AO2 T01090067
Loading
Personal Weather Stations






























Interactive Weather Map
Tropical Storm Tracking
New forecast layout! Learn more

10-Day Weather Forecast

Advertisements
Track Severe Weather on mobile